createdAt,value
2023-02-25T00:01:28.955Z,6.75
2023-02-25T00:03:56.754Z,7.70
2023-02-25T00:06:24.585Z,7.45
2023-02-25T00:08:52.778Z,6.70
2023-02-25T00:11:20.522Z,6.75
2023-02-25T00:13:47.442Z,6.05
2023-02-25T00:16:15.091Z,7.90
2023-02-25T00:18:44.321Z,5.97
2023-02-25T00:21:17.575Z,7.93
2023-02-25T00:23:47.563Z,8.50
2023-02-25T00:26:17.336Z,7.57
2023-02-25T00:28:44.377Z,6.97
2023-02-25T00:31:14.304Z,6.25
2023-02-25T00:33:41.990Z,6.35
2023-02-25T00:36:21.201Z,6.03
2023-02-25T00:38:49.766Z,5.68
2023-02-25T00:41:19.083Z,5.65
2023-02-25T00:43:50.604Z,6.43
2023-02-25T00:46:17.815Z,5.85
2023-02-25T00:48:44.637Z,6.80
2023-02-25T00:51:14.459Z,7.60
2023-02-25T00:53:41.625Z,4.97
2023-02-25T00:56:11.548Z,6.80
2023-02-25T00:58:38.765Z,8.48
2023-02-25T01:01:15.971Z,7.35
2023-02-25T01:03:42.887Z,8.52
2023-02-25T01:06:09.978Z,8.18
2023-02-25T01:08:37.234Z,9.40
2023-02-25T01:11:27.629Z,9.02
2023-02-25T01:14:00.246Z,5.95
2023-02-25T01:16:29.526Z,5.93
2023-02-25T01:19:00.230Z,6.35
2023-02-25T01:21:30.029Z,7.38
2023-02-25T01:23:59.685Z,7.00
2023-02-25T01:26:27.994Z,6.20
2023-02-25T01:28:55.768Z,5.50
2023-02-25T01:31:29.041Z,5.97
2023-02-25T01:34:00.907Z,5.72
2023-02-25T01:36:28.372Z,6.95
2023-02-25T01:38:57.149Z,7.40
2023-02-25T01:41:25.380Z,5.30
2023-02-25T01:44:03.962Z,7.28
2023-02-25T01:46:30.895Z,6.18
2023-02-25T01:48:58.227Z,6.00
2023-02-25T01:51:27.655Z,8.32
2023-02-25T01:53:56.398Z,7.05
2023-02-25T01:56:25.862Z,6.22
2023-02-25T01:58:53.754Z,7.07
2023-02-25T02:01:23.182Z,6.43
2023-02-25T02:03:51.188Z,7.03
2023-02-25T02:06:33.505Z,7.13
2023-02-25T02:09:01.445Z,9.40
2023-02-25T02:11:29.736Z,7.72
2023-02-25T02:13:58.507Z,7.57
2023-02-25T02:17:09.613Z,7.45
2023-02-25T02:19:49.636Z,7.63
2023-02-25T02:22:37.588Z,6.18
2023-02-25T02:25:30.419Z,7.47
2023-02-25T02:28:22.028Z,8.35
2023-02-25T02:31:19.446Z,9.98
2023-02-25T02:34:16.511Z,7.88
2023-02-25T02:37:24.217Z,11.50
2023-02-25T02:40:15.132Z,9.57
2023-02-25T02:42:59.505Z,10.43
2023-02-25T02:45:34.523Z,10.10
2023-02-25T02:48:17.127Z,9.35
2023-02-25T02:50:47.714Z,10.20
2023-02-25T02:53:32.221Z,9.05
2023-02-25T02:56:02.815Z,8.82
2023-02-25T02:58:37.018Z,8.55
2023-02-25T03:01:20.696Z,10.30
2023-02-25T03:03:59.642Z,10.38
2023-02-25T03:06:32.953Z,9.95
2023-02-25T03:09:14.964Z,9.90
2023-02-25T03:11:42.015Z,8.18
2023-02-25T03:14:08.698Z,9.00
2023-02-25T03:16:43.206Z,8.95
2023-02-25T03:19:24.592Z,10.52
2023-02-25T03:22:05.534Z,9.85
2023-02-25T03:24:53.438Z,8.45
2023-02-25T03:27:28.161Z,9.63
2023-02-25T03:30:12.694Z,8.65
2023-02-25T03:32:47.938Z,8.82
2023-02-25T03:35:16.215Z,9.32
2023-02-25T03:37:49.488Z,9.25
2023-02-25T03:40:17.741Z,9.35
2023-02-25T03:42:52.947Z,9.55
2023-02-25T03:45:23.447Z,6.97
2023-02-25T03:47:51.038Z,8.55
2023-02-25T03:50:28.344Z,7.63
2023-02-25T03:52:59.063Z,9.35
2023-02-25T03:56:08.442Z,8.27
2023-02-25T03:58:38.206Z,9.55
2023-02-25T04:01:15.685Z,7.25
2023-02-25T04:03:43.483Z,9.57
2023-02-25T04:06:12.691Z,6.53
2023-02-25T04:08:40.159Z,5.93
2023-02-25T04:11:06.857Z,6.95
2023-02-25T04:13:33.594Z,7.00
2023-02-25T04:16:00.276Z,7.15
2023-02-25T04:18:27.645Z,8.07
2023-02-25T04:20:54.819Z,7.90
2023-02-25T04:23:21.532Z,9.02
2023-02-25T04:25:48.308Z,10.50
2023-02-25T04:28:15.114Z,7.63
2023-02-25T04:30:42.179Z,10.88
2023-02-25T04:33:16.124Z,10.63
2023-02-25T04:35:44.098Z,9.45
2023-02-25T04:38:12.029Z,9.38
2023-02-25T04:40:38.713Z,9.20
2023-02-25T04:43:05.554Z,10.02
2023-02-25T04:45:32.154Z,10.23
2023-02-25T04:47:58.775Z,10.13
2023-02-25T04:50:25.928Z,11.48
2023-02-25T04:52:52.605Z,10.15
2023-02-25T04:55:19.870Z,12.88
2023-02-25T04:57:46.542Z,11.00
2023-02-25T05:00:19.069Z,9.80
2023-02-25T05:02:48.920Z,9.15
2023-02-25T05:05:16.710Z,9.18
2023-02-25T05:07:44.202Z,8.93
2023-02-25T05:10:13.069Z,9.20
2023-02-25T05:12:39.842Z,10.13
2023-02-25T05:15:08.419Z,8.50
2023-02-25T05:17:35.945Z,9.25
2023-02-25T05:20:06.989Z,8.80
2023-02-25T05:22:33.706Z,8.82
2023-02-25T05:25:00.401Z,9.45
2023-02-25T05:27:27.049Z,10.75
2023-02-25T05:29:54.631Z,8.88
2023-02-25T05:32:21.987Z,8.48
2023-02-25T05:34:48.881Z,8.65
2023-02-25T05:37:15.591Z,9.75
2023-02-25T05:39:42.376Z,9.27
2023-02-25T05:42:08.990Z,7.93
2023-02-25T05:44:35.653Z,7.18
2023-02-25T05:47:02.343Z,8.07
2023-02-25T05:49:29.492Z,6.22
2023-02-25T05:51:56.136Z,6.22
2023-02-25T05:54:23.198Z,6.07
2023-02-25T05:56:53.400Z,7.03
2023-02-25T05:59:20.030Z,7.35
2023-02-25T06:01:46.735Z,8.27
2023-02-25T06:04:16.833Z,6.93
2023-02-25T06:06:50.075Z,8.32
2023-02-25T06:09:20.990Z,7.47
2023-02-25T06:11:48.898Z,7.22
2023-02-25T06:14:16.568Z,7.50
2023-02-25T06:16:43.446Z,9.50
2023-02-25T06:19:11.326Z,7.18
2023-02-25T06:21:38.510Z,8.52
2023-02-25T06:24:05.856Z,8.27
2023-02-25T06:26:32.644Z,8.52
2023-02-25T06:28:59.273Z,8.27
2023-02-25T06:31:25.867Z,10.57
2023-02-25T06:33:54.829Z,9.13
2023-02-25T06:36:22.069Z,9.73
2023-02-25T06:38:49.252Z,10.43
2023-02-25T06:41:19.039Z,9.18
2023-02-25T06:43:46.142Z,8.93
2023-02-25T06:46:14.787Z,6.32
2023-02-25T06:48:41.596Z,9.05
2023-02-25T06:51:09.491Z,9.77
2023-02-25T06:53:40.803Z,8.80
2023-02-25T06:56:08.267Z,9.77
2023-02-25T06:58:36.245Z,9.00
2023-02-25T07:01:10.717Z,10.23
2023-02-25T07:03:37.772Z,9.18
2023-02-25T07:06:04.715Z,9.85
2023-02-25T07:08:31.499Z,10.90
2023-02-25T07:11:30.038Z,9.82
2023-02-25T07:13:57.245Z,11.70
2023-02-25T07:16:24.200Z,11.18
2023-02-25T07:18:51.257Z,10.88
2023-02-25T07:21:18.847Z,11.52
2023-02-25T07:23:46.347Z,11.43
2023-02-25T07:26:14.566Z,10.65
2023-02-25T07:28:42.523Z,10.50
2023-02-25T07:31:17.190Z,11.68
2023-02-25T07:36:11.828Z,14.57
2023-02-25T07:38:38.829Z,11.45
2023-02-25T07:41:06.243Z,11.32
2023-02-25T07:43:33.228Z,10.43
2023-02-25T07:46:00.147Z,7.70
2023-02-25T07:48:27.235Z,8.63
2023-02-25T07:50:53.910Z,11.35
2023-02-25T07:53:22.379Z,8.95
2023-02-25T07:55:50.480Z,11.13
2023-02-25T07:58:17.119Z,11.82
2023-02-25T08:00:45.616Z,8.70
2023-02-25T08:03:12.558Z,8.88
2023-02-25T08:05:39.207Z,7.82
2023-02-25T08:08:06.064Z,6.47
2023-02-25T08:10:32.771Z,7.53
2023-02-25T08:12:59.756Z,5.15
2023-02-25T08:15:26.436Z,6.65
2023-02-25T08:17:55.683Z,9.25
2023-02-25T08:20:24.180Z,7.80
2023-02-25T08:22:50.877Z,6.82
2023-02-25T08:25:17.791Z,6.85
2023-02-25T08:27:44.533Z,7.13
2023-02-25T08:30:11.802Z,6.47
2023-02-25T08:32:38.928Z,6.93
2023-02-25T08:35:06.000Z,5.85
2023-02-25T08:37:33.385Z,6.63
2023-02-25T08:40:00.180Z,5.68
2023-02-25T08:42:27.180Z,6.38
2023-02-25T08:44:53.827Z,8.00
2023-02-25T08:47:20.489Z,6.80
2023-02-25T08:49:47.546Z,7.07
2023-02-25T08:52:14.560Z,7.85
2023-02-25T08:54:41.349Z,5.75
2023-02-25T08:57:08.227Z,7.20
2023-02-25T08:59:35.800Z,5.53
2023-02-25T09:02:05.329Z,7.38
2023-02-25T09:04:33.821Z,6.70
2023-02-25T09:07:01.461Z,6.38
2023-02-25T09:09:28.062Z,8.73
2023-02-25T09:11:55.544Z,9.48
2023-02-25T09:14:22.301Z,10.55
2023-02-25T09:16:49.691Z,12.18
2023-02-25T09:19:18.191Z,13.82
2023-02-25T09:21:47.953Z,14.20
2023-02-25T09:24:15.573Z,15.68
2023-02-25T09:26:42.210Z,14.18
2023-02-25T09:29:09.250Z,11.88
2023-02-25T09:31:37.443Z,14.45
2023-02-25T09:34:07.311Z,15.70
2023-02-25T09:36:34.080Z,18.75
2023-02-25T09:39:00.757Z,18.38
2023-02-25T09:41:35.499Z,16.58
2023-02-25T09:46:34.697Z,16.55
2023-02-25T09:49:28.882Z,17.05
2023-02-25T09:52:22.464Z,12.63
2023-02-25T09:54:55.614Z,7.97
2023-02-25T09:57:23.366Z,3.42
2023-02-25T09:59:53.368Z,2.20
2023-02-25T10:02:40.893Z,2.10
2023-02-25T10:05:17.959Z,1.88
2023-02-25T10:08:39.074Z,2.63
2023-02-25T10:11:10.049Z,3.90
2023-02-25T10:14:02.281Z,4.80
2023-02-25T10:16:52.166Z,7.07
2023-02-25T10:19:37.571Z,10.07
2023-02-25T10:22:22.562Z,13.57
2023-02-25T10:24:53.757Z,16.52
2023-02-25T10:27:24.603Z,20.17
2023-02-25T10:29:59.755Z,20.10
2023-02-25T10:32:31.211Z,17.83
2023-02-25T10:35:00.972Z,19.02
2023-02-25T10:37:35.930Z,13.80
2023-02-25T10:42:31.834Z,12.27
2023-02-25T10:45:08.075Z,14.52
2023-02-25T10:47:37.518Z,17.13
2023-02-25T10:50:18.521Z,22.27
2023-02-25T10:52:57.413Z,18.80
2023-02-25T10:55:52.633Z,22.20
2023-02-25T10:58:47.021Z,22.02
2023-02-25T11:01:20.892Z,19.08
2023-02-25T11:04:00.189Z,21.73
2023-02-25T11:06:35.191Z,23.13
2023-02-25T11:09:04.901Z,23.27
2023-02-25T11:11:37.070Z,21.40
2023-02-25T11:14:15.571Z,19.77
2023-02-25T11:16:44.836Z,17.52
2023-02-25T11:19:22.677Z,20.02
2023-02-25T11:21:50.067Z,20.10
2023-02-25T11:24:22.596Z,17.77
2023-02-25T11:26:51.930Z,17.40
2023-02-25T11:29:23.027Z,17.88
2023-02-25T11:31:58.691Z,18.35
2023-02-25T11:34:30.590Z,18.63
2023-02-25T11:37:18.915Z,17.55
2023-02-25T11:39:54.065Z,19.30
2023-02-25T11:42:27.063Z,24.50
2023-02-25T11:45:04.480Z,19.02
2023-02-25T11:47:33.511Z,26.27
2023-02-25T11:50:15.151Z,26.23
2023-02-25T11:53:01.843Z,26.58
2023-02-25T11:56:05.379Z,26.60
2023-02-25T11:58:57.768Z,23.83
2023-02-25T12:01:47.160Z,25.17
2023-02-25T12:04:53.587Z,25.38
2023-02-25T12:08:05.018Z,24.30
2023-02-25T12:11:02.624Z,24.52
2023-02-25T12:13:51.341Z,24.02
2023-02-25T12:16:44.492Z,29.60
2023-02-25T12:19:23.629Z,25.20
2023-02-25T12:22:26.815Z,32.40
2023-02-25T12:24:53.391Z,25.10
2023-02-25T12:27:34.031Z,29.20
2023-02-25T12:30:33.267Z,27.88
2023-02-25T12:33:12.080Z,28.13
2023-02-25T12:36:03.588Z,26.38
2023-02-25T12:39:02.844Z,26.88
2023-02-25T12:41:47.636Z,27.10
2023-02-25T12:44:39.770Z,24.92
2023-02-25T12:47:45.078Z,24.42
2023-02-25T12:50:23.665Z,25.52
2023-02-25T12:53:02.331Z,24.67
2023-02-25T12:55:40.920Z,27.63
2023-02-25T12:58:33.491Z,33.67
2023-02-25T13:01:13.100Z,39.45
2023-02-25T13:03:57.914Z,40.78
2023-02-25T13:06:45.665Z,41.65
2023-02-25T13:09:46.051Z,35.03
2023-02-25T13:12:28.575Z,26.15
2023-02-25T13:15:20.502Z,25.73
2023-02-25T13:18:06.894Z,25.95
2023-02-25T13:21:02.452Z,26.13
2023-02-25T13:26:51.437Z,28.05
2023-02-25T13:30:13.397Z,28.02
2023-02-25T13:33:11.170Z,27.60
2023-02-25T13:36:18.742Z,28.88
2023-02-25T13:39:10.227Z,27.83
2023-02-25T13:41:46.272Z,29.00
2023-02-25T13:44:46.913Z,28.15
2023-02-25T13:47:28.693Z,29.27
2023-02-25T13:50:21.585Z,30.33
2023-02-25T13:53:20.068Z,27.95
2023-02-25T13:56:07.216Z,28.08
2023-02-25T13:59:02.996Z,27.00
2023-02-25T14:02:15.677Z,29.45
2023-02-25T14:05:11.169Z,27.80
2023-02-25T14:08:15.467Z,28.90
2023-02-25T14:10:54.851Z,32.53
2023-02-25T14:13:41.868Z,33.50
2023-02-25T14:16:44.710Z,34.35
2023-02-25T14:19:55.262Z,31.73
2023-02-25T14:22:39.860Z,33.03
2023-02-25T14:25:22.638Z,33.88
2023-02-25T14:28:26.845Z,33.30
2023-02-25T14:30:59.543Z,30.90
2023-02-25T14:33:41.951Z,32.78
2023-02-25T14:36:43.338Z,32.45
2023-02-25T14:39:32.521Z,31.33
2023-02-25T14:42:14.921Z,35.63
2023-02-25T14:44:50.399Z,36.22
2023-02-25T14:47:25.306Z,35.55
2023-02-25T14:49:54.919Z,37.85
2023-02-25T14:52:36.636Z,37.83
2023-02-25T14:55:24.228Z,36.95
2023-02-25T14:58:18.830Z,35.58
2023-02-25T15:00:51.515Z,34.80
2023-02-25T15:03:35.842Z,31.95
2023-02-25T15:06:21.558Z,32.07
2023-02-25T15:09:37.040Z,32.97
2023-02-25T15:12:06.517Z,32.13
2023-02-25T15:14:54.385Z,32.33
2023-02-25T15:17:21.238Z,32.00
2023-02-25T15:19:56.674Z,31.42
2023-02-25T15:22:29.349Z,31.45
2023-02-25T15:25:20.901Z,31.00
2023-02-25T15:27:56.746Z,29.42
2023-02-25T15:30:26.380Z,32.08
2023-02-25T15:33:01.994Z,29.17
2023-02-25T15:35:34.513Z,26.20
2023-02-25T15:38:02.110Z,26.02
2023-02-25T15:40:34.748Z,27.45
2023-02-25T15:43:10.528Z,25.92
2023-02-25T15:45:38.828Z,25.55
2023-02-25T15:48:08.206Z,24.83
2023-02-25T15:50:43.898Z,24.25
2023-02-25T15:53:25.480Z,25.50
2023-02-25T15:56:04.334Z,29.83
2023-02-25T15:58:31.050Z,28.73
2023-02-25T16:01:36.643Z,28.88
2023-02-25T16:04:26.317Z,30.48
2023-02-25T16:06:54.225Z,29.08
2023-02-25T16:09:21.404Z,31.80
2023-02-25T16:11:49.418Z,28.92
2023-02-25T16:14:30.090Z,31.73
2023-02-25T16:16:59.211Z,29.58
2023-02-25T16:19:30.616Z,32.85
2023-02-25T16:22:19.128Z,30.42
2023-02-25T16:24:52.191Z,26.58
2023-02-25T16:27:33.407Z,29.65
2023-02-25T16:30:41.330Z,29.58
2023-02-25T16:33:21.291Z,27.30
2023-02-25T16:35:55.379Z,28.83
2023-02-25T16:38:47.747Z,28.08
2023-02-25T16:41:15.268Z,28.50
2023-02-25T16:43:43.468Z,29.65
2023-02-25T16:46:20.192Z,28.77
2023-02-25T16:48:51.341Z,18.75
2023-02-25T16:51:32.915Z,18.35
2023-02-25T16:54:03.737Z,18.77
2023-02-25T16:56:32.458Z,18.52
2023-02-25T16:59:14.019Z,19.70
2023-02-25T17:01:57.357Z,18.58
2023-02-25T17:04:33.539Z,19.05
2023-02-25T17:07:07.843Z,18.85
2023-02-25T17:09:35.406Z,19.38
2023-02-25T17:12:04.135Z,18.90
2023-02-25T17:14:31.630Z,19.15
2023-02-25T17:16:58.987Z,19.20
2023-02-25T17:19:26.698Z,19.70
2023-02-25T17:21:58.554Z,19.27
2023-02-25T17:24:30.912Z,19.33
2023-02-25T17:26:57.855Z,18.88
2023-02-25T17:29:36.487Z,27.33
2023-02-25T17:32:28.102Z,18.70
2023-02-25T17:34:58.985Z,18.92
2023-02-25T17:37:29.058Z,19.05
2023-02-25T17:39:56.619Z,26.25
2023-02-25T17:42:32.145Z,19.23
2023-02-25T17:45:00.745Z,19.48
2023-02-25T17:47:31.251Z,19.00
2023-02-25T17:50:01.450Z,19.38
2023-02-25T17:52:32.302Z,18.98
2023-02-25T17:55:02.030Z,19.67
2023-02-25T17:57:31.121Z,18.80
2023-02-25T18:00:21.148Z,18.77
2023-02-25T18:02:47.997Z,20.08
2023-02-25T18:05:21.348Z,19.23
2023-02-25T18:08:06.640Z,19.77
2023-02-25T18:10:33.251Z,20.58
2023-02-25T18:13:01.816Z,19.55
2023-02-25T18:15:33.632Z,21.42
2023-02-25T18:18:07.183Z,20.30
2023-02-25T18:20:35.398Z,19.95
2023-02-25T18:23:03.055Z,19.77
2023-02-25T18:25:37.403Z,19.60
2023-02-25T18:28:06.697Z,20.40
2023-02-25T18:30:33.751Z,20.00
2023-02-25T18:33:00.518Z,20.27
2023-02-25T18:35:29.277Z,20.45
2023-02-25T18:37:57.587Z,19.15
2023-02-25T18:40:36.673Z,18.92
2023-02-25T18:43:04.330Z,18.67
2023-02-25T18:45:33.093Z,18.95
2023-02-25T18:48:00.754Z,18.98
2023-02-25T18:50:31.829Z,19.00
2023-02-25T18:52:58.805Z,19.58
2023-02-25T18:55:28.927Z,18.65
2023-02-25T18:57:55.788Z,19.77
2023-02-25T19:00:24.395Z,18.65
2023-02-25T19:02:57.768Z,18.65
2023-02-25T19:05:25.095Z,19.25
2023-02-25T19:07:52.470Z,18.95
2023-02-25T19:10:20.565Z,18.60
2023-02-25T19:12:49.523Z,19.45
2023-02-25T19:15:19.886Z,18.65
2023-02-25T19:17:47.485Z,18.52
2023-02-25T19:20:16.413Z,18.55
2023-02-25T19:22:45.012Z,18.35
2023-02-25T19:25:26.868Z,17.77
2023-02-25T19:27:55.508Z,19.30
2023-02-25T19:30:25.697Z,18.48
2023-02-25T19:32:53.506Z,18.23
2023-02-25T19:35:20.155Z,20.42
2023-02-25T19:37:47.158Z,18.58
2023-02-25T19:40:15.769Z,18.52
2023-02-25T19:42:44.417Z,20.65
2023-02-25T19:45:14.679Z,22.45
2023-02-25T19:47:41.479Z,19.17
2023-02-25T19:50:09.547Z,18.23
2023-02-25T19:52:36.143Z,18.90
2023-02-25T19:55:03.517Z,18.58
2023-02-25T19:57:30.547Z,18.02
2023-02-25T19:59:57.237Z,18.08
2023-02-25T20:02:24.419Z,19.30
2023-02-25T20:04:51.050Z,18.67
2023-02-25T20:07:17.740Z,17.63
2023-02-25T20:09:44.359Z,18.75
2023-02-25T20:12:12.017Z,18.52
2023-02-25T20:14:38.669Z,17.00
2023-02-25T20:17:05.357Z,17.27
2023-02-25T20:19:32.839Z,17.42
2023-02-25T20:22:01.158Z,17.13
2023-02-25T20:24:28.551Z,18.45
2023-02-25T20:26:56.035Z,17.60
2023-02-25T20:29:23.366Z,17.50
2023-02-25T20:31:50.177Z,17.35
2023-02-25T20:34:20.633Z,18.17
2023-02-25T20:37:02.286Z,18.52
2023-02-25T20:39:37.626Z,17.58
2023-02-25T20:42:06.072Z,16.92
2023-02-25T20:44:33.026Z,17.70
2023-02-25T20:46:59.757Z,17.92
2023-02-25T20:49:27.089Z,17.95
2023-02-25T20:51:54.113Z,18.42
2023-02-25T20:54:21.023Z,17.40
2023-02-25T20:56:49.378Z,18.15
2023-02-25T20:59:17.367Z,17.65
2023-02-25T21:01:45.168Z,17.27
2023-02-25T21:04:12.226Z,18.08
2023-02-25T21:06:39.332Z,18.08
2023-02-25T21:09:07.334Z,17.65
2023-02-25T21:11:34.262Z,18.17
2023-02-25T21:14:00.954Z,17.58
2023-02-25T21:16:27.906Z,17.73
2023-02-25T21:18:54.765Z,17.20
2023-02-25T21:21:21.909Z,17.05
2023-02-25T21:23:51.644Z,17.45
2023-02-25T21:26:18.612Z,17.00
2023-02-25T21:28:46.557Z,16.98
2023-02-25T21:31:15.194Z,16.58
2023-02-25T21:33:42.566Z,16.90
2023-02-25T21:36:10.789Z,16.15
2023-02-25T21:38:38.554Z,15.75
2023-02-25T21:41:11.138Z,16.70
2023-02-25T21:43:38.639Z,15.65
2023-02-25T21:46:07.751Z,15.77
2023-02-25T21:48:34.512Z,15.10
2023-02-25T21:51:01.162Z,14.82
2023-02-25T21:53:28.786Z,14.32
2023-02-25T21:55:55.855Z,14.90
2023-02-25T21:58:23.199Z,14.93
2023-02-25T22:00:50.701Z,15.15
2023-02-25T22:03:17.615Z,15.50
2023-02-25T22:05:46.415Z,15.60
2023-02-25T22:08:14.040Z,15.15
2023-02-25T22:10:40.897Z,15.02
2023-02-25T22:13:08.378Z,15.07
2023-02-25T22:15:35.353Z,15.35
2023-02-25T22:18:02.308Z,15.40
2023-02-25T22:20:28.988Z,15.13
2023-02-25T22:22:58.002Z,14.27
2023-02-25T22:25:24.779Z,14.65
2023-02-25T22:27:51.985Z,13.90
2023-02-25T22:30:18.854Z,14.35
2023-02-25T22:32:45.636Z,14.75
2023-02-25T22:35:12.390Z,13.90
2023-02-25T22:37:39.052Z,14.50
2023-02-25T22:40:06.324Z,14.00
2023-02-25T22:42:33.105Z,16.65
2023-02-25T22:44:59.724Z,14.38
2023-02-25T22:47:26.359Z,14.10
2023-02-25T22:49:53.011Z,14.15
2023-02-25T22:52:19.685Z,14.60
2023-02-25T22:54:46.576Z,14.38
2023-02-25T22:57:13.480Z,14.32
2023-02-25T22:59:40.115Z,14.18
2023-02-25T23:02:06.737Z,14.07
2023-02-25T23:04:33.463Z,14.50
2023-02-25T23:07:00.963Z,14.40
2023-02-25T23:09:27.752Z,15.60
2023-02-25T23:11:55.069Z,16.02
2023-02-25T23:14:21.658Z,15.50
2023-02-25T23:16:48.467Z,14.82
2023-02-25T23:19:17.910Z,14.98
2023-02-25T23:21:44.992Z,14.80
2023-02-25T23:24:19.377Z,14.90
2023-02-25T23:26:50.081Z,15.00
2023-02-25T23:29:16.732Z,15.55
2023-02-25T23:31:46.738Z,14.57
2023-02-25T23:34:17.897Z,14.75
2023-02-25T23:36:45.435Z,14.68
2023-02-25T23:39:14.449Z,15.23
2023-02-25T23:41:41.348Z,14.30
2023-02-25T23:44:09.058Z,13.60
2023-02-25T23:46:36.307Z,13.52
2023-02-25T23:49:05.843Z,13.55
2023-02-25T23:51:33.657Z,13.38
2023-02-25T23:54:02.716Z,12.70
2023-02-25T23:56:31.770Z,13.02
2023-02-25T23:58:58.747Z,13.40
